Terminal Aerodrome Forecast
Issued by NWS Wilmington, OH

Current Version | Previous Version | Graphics & Text | Print | Product List | Glossary On
Versions: 1 2 3 4 5 6 7 8 9 10 11 12 13 14 15 16 17 18 19 20 21
000
FTUS41 KILN 280531
TAFCVG
TAF
KCVG 280531Z 2806/2912 18005KT P6SM SCT050 BKN150
     FM281300 20008KT P6SM VCSH SCT035 BKN150
     FM281700 21010KT P6SM BKN035
     FM282300 21005KT P6SM FEW040 BKN150=

USA.gov is the U.S. government's official web portal to all federal, state and local government web resources and services.